createdAt,value
2022-09-17T00:01:08.381Z,100014.00
2022-09-17T00:03:36.568Z,100020.19
2022-09-17T00:06:06.469Z,100024.25
2022-09-17T00:08:35.661Z,100023.31
2022-09-17T00:11:09.460Z,100023.63
2022-09-17T00:13:37.345Z,100022.25
2022-09-17T00:16:05.589Z,100024.72
2022-09-17T00:18:33.394Z,100031.94
2022-09-17T00:21:01.068Z,100029.91
2022-09-17T00:23:28.647Z,100034.66
2022-09-17T00:25:56.230Z,100034.50
2022-09-17T00:28:25.092Z,100038.19
2022-09-17T00:30:52.773Z,100039.50
2022-09-17T00:33:20.847Z,100042.41
2022-09-17T00:35:58.774Z,100031.94
2022-09-17T00:38:26.538Z,100031.00
2022-09-17T00:40:54.319Z,100035.75
2022-09-17T00:43:42.018Z,100044.47
2022-09-17T00:46:23.618Z,100043.16
2022-09-17T00:48:53.854Z,100049.03
2022-09-17T00:51:26.309Z,100039.94
2022-09-17T00:53:53.994Z,100053.53
2022-09-17T00:56:24.795Z,100053.75
2022-09-17T00:58:54.267Z,100050.94
2022-09-17T01:01:22.170Z,100057.44
2022-09-17T01:03:49.893Z,100049.66
2022-09-17T01:06:26.454Z,100047.41
2022-09-17T01:09:09.191Z,100047.13
2022-09-17T01:11:53.658Z,100054.06
2022-09-17T01:14:40.954Z,100051.75
2022-09-17T01:17:16.704Z,100047.13
2022-09-17T01:20:19.620Z,100046.00
2022-09-17T01:23:00.114Z,100048.72
2022-09-17T01:25:39.099Z,100040.75
2022-09-17T01:28:29.216Z,100045.03
2022-09-17T01:31:16.748Z,100046.91
2022-09-17T01:33:54.029Z,100049.41
2022-09-17T01:36:34.095Z,100055.22
2022-09-17T01:39:09.063Z,100061.69
2022-09-17T01:41:44.484Z,100057.16
2022-09-17T01:44:18.693Z,100055.53
2022-09-17T01:46:53.383Z,100063.44
2022-09-17T01:49:23.237Z,100062.59
2022-09-17T01:51:51.853Z,100074.09
2022-09-17T01:54:25.372Z,100074.63
2022-09-17T01:56:57.910Z,100063.53
2022-09-17T01:59:30.149Z,100077.44
2022-09-17T02:02:07.983Z,100080.72
2022-09-17T02:04:39.830Z,100073.53
2022-09-17T02:07:16.061Z,100077.09
2022-09-17T02:09:50.502Z,100078.16
2022-09-17T02:12:21.799Z,100083.97
2022-09-17T02:14:53.015Z,100076.06
2022-09-17T02:17:27.697Z,100085.00
2022-09-17T02:19:56.387Z,100078.16
2022-09-17T02:22:28.806Z,100082.97
2022-09-17T02:25:05.256Z,100079.59
2022-09-17T02:27:45.116Z,100084.47
2022-09-17T02:30:12.791Z,100094.28
2022-09-17T02:32:42.855Z,100095.31
2022-09-17T02:35:11.133Z,100089.25
2022-09-17T02:37:38.739Z,100089.00
2022-09-17T02:40:07.992Z,100090.69
2022-09-17T02:42:50.128Z,100093.69
2022-09-17T02:45:29.868Z,100103.63
2022-09-17T02:48:12.549Z,100096.34
2022-09-17T02:50:53.511Z,100101.78
2022-09-17T02:53:36.333Z,100097.06
2022-09-17T02:56:15.339Z,100100.00
2022-09-17T02:58:53.589Z,100096.31
2022-09-17T03:01:26.429Z,100101.06
2022-09-17T03:03:57.890Z,100099.16
2022-09-17T03:06:25.492Z,100100.31
2022-09-17T03:08:53.400Z,100107.81
2022-09-17T03:11:21.576Z,100103.28
2022-09-17T03:13:49.354Z,100096.16
2022-09-17T03:16:17.017Z,100108.13
2022-09-17T03:18:44.659Z,100108.88
2022-09-17T03:21:13.561Z,100108.56
2022-09-17T03:23:41.119Z,100109.72
2022-09-17T03:26:08.936Z,100119.16
2022-09-17T03:28:36.515Z,100124.75
2022-09-17T03:31:05.683Z,100118.00
2022-09-17T03:33:33.908Z,100115.16
2022-09-17T03:36:01.855Z,100119.50
2022-09-17T03:38:30.742Z,100117.41
2022-09-17T03:40:59.633Z,100124.28
2022-09-17T03:43:27.527Z,100129.66
2022-09-17T03:45:55.088Z,100126.53
2022-09-17T03:48:23.234Z,100121.41
2022-09-17T03:50:51.026Z,100133.69
2022-09-17T03:53:19.068Z,100127.41
2022-09-17T03:55:47.970Z,100130.59
2022-09-17T03:58:15.701Z,100143.94
2022-09-17T04:00:43.460Z,100145.66
2022-09-17T04:03:11.096Z,100139.41
2022-09-17T04:05:38.609Z,100143.94
2022-09-17T04:08:06.253Z,100148.47
2022-09-17T04:10:33.797Z,100141.78
2022-09-17T04:13:02.688Z,100148.25
2022-09-17T04:15:30.406Z,100147.84
2022-09-17T04:17:58.622Z,100157.06
2022-09-17T04:20:26.974Z,100150.84
2022-09-17T04:22:55.234Z,100157.66
2022-09-17T04:25:22.903Z,100164.94
2022-09-17T04:27:50.705Z,100167.03
2022-09-17T04:30:19.879Z,100159.59
2022-09-17T04:32:47.801Z,100161.88
2022-09-17T04:35:15.742Z,100164.59
2022-09-17T04:37:43.340Z,100158.78
2022-09-17T04:40:11.697Z,100159.59
2022-09-17T04:42:39.397Z,100165.03
2022-09-17T04:45:07.864Z,100157.19
2022-09-17T04:47:39.479Z,100151.53
2022-09-17T04:50:07.792Z,100166.06
2022-09-17T04:52:35.450Z,100161.00
2022-09-17T04:55:03.121Z,100164.13
2022-09-17T04:57:30.670Z,100154.19
2022-09-17T04:59:58.234Z,100160.00
2022-09-17T05:02:25.812Z,100153.34
2022-09-17T05:04:56.922Z,100163.09
2022-09-17T05:07:24.519Z,100157.66
2022-09-17T05:09:52.213Z,100167.75
2022-09-17T05:12:19.992Z,100169.19
2022-09-17T05:14:47.609Z,100163.59
2022-09-17T05:17:15.252Z,100168.59
2022-09-17T05:19:42.999Z,100179.25
2022-09-17T05:22:11.906Z,100182.63
2022-09-17T05:24:40.780Z,100181.38
2022-09-17T05:27:09.984Z,100181.78
2022-09-17T05:29:37.638Z,100186.78
2022-09-17T05:32:06.011Z,100183.00
2022-09-17T05:34:34.086Z,100190.50
2022-09-17T05:37:01.720Z,100195.97
2022-09-17T05:39:30.682Z,100181.31
2022-09-17T05:41:58.517Z,100190.56
2022-09-17T05:44:26.638Z,100190.09
2022-09-17T05:46:54.559Z,100188.84
2022-09-17T05:49:22.314Z,100195.53
2022-09-17T05:51:51.418Z,100193.34
2022-09-17T05:54:19.095Z,100199.56
2022-09-17T05:56:48.063Z,100194.09
2022-09-17T05:59:15.770Z,100196.97
2022-09-17T06:01:43.596Z,100188.81
2022-09-17T06:04:11.160Z,100204.06
2022-09-17T06:06:39.267Z,100198.41
2022-09-17T06:09:07.171Z,100211.16
2022-09-17T06:11:34.880Z,100220.81
2022-09-17T06:14:04.232Z,100221.53
2022-09-17T06:16:32.464Z,100224.03
2022-09-17T06:19:00.701Z,100221.28
2022-09-17T06:21:28.982Z,100222.06
2022-09-17T06:23:56.692Z,100226.03
2022-09-17T06:26:24.411Z,100215.41
2022-09-17T06:28:52.217Z,100225.19
2022-09-17T06:31:21.285Z,100224.31
2022-09-17T06:33:49.531Z,100235.97
2022-09-17T06:36:17.786Z,100238.06
2022-09-17T06:38:46.484Z,100235.97
2022-09-17T06:41:16.805Z,100228.03
2022-09-17T06:43:44.985Z,100231.41
2022-09-17T06:46:13.620Z,100236.38
2022-09-17T06:48:43.112Z,100246.19
2022-09-17T06:51:12.600Z,100247.25
2022-09-17T06:53:40.822Z,100255.59
2022-09-17T06:56:11.575Z,100245.88
2022-09-17T06:58:41.614Z,100247.72
2022-09-17T07:01:11.422Z,100241.84
2022-09-17T07:03:39.628Z,100234.56
2022-09-17T07:06:11.324Z,100247.63
2022-09-17T07:08:39.445Z,100238.38
2022-09-17T07:11:08.116Z,100239.72
2022-09-17T07:13:36.119Z,100250.63
2022-09-17T07:16:06.610Z,100239.13
2022-09-17T07:18:34.609Z,100231.16
2022-09-17T07:21:05.761Z,100235.63
2022-09-17T07:23:36.124Z,100233.25
2022-09-17T07:26:07.043Z,100232.78
2022-09-17T07:28:35.183Z,100234.31
2022-09-17T07:31:06.401Z,100238.25
2022-09-17T07:33:36.307Z,100245.50
2022-09-17T07:36:07.142Z,100245.06
2022-09-17T07:38:36.473Z,100242.19
2022-09-17T07:41:06.654Z,100241.66
2022-09-17T07:43:36.142Z,100239.59
2022-09-17T07:46:06.089Z,100234.94
2022-09-17T07:48:33.978Z,100236.22
2022-09-17T07:51:01.584Z,100234.81
2022-09-17T07:53:29.549Z,100241.69
2022-09-17T07:56:00.064Z,100232.19
2022-09-17T07:58:31.186Z,100237.53
2022-09-17T08:01:03.276Z,100235.56
2022-09-17T08:03:31.328Z,100246.59
2022-09-17T08:06:04.725Z,100233.47
2022-09-17T08:08:35.961Z,100244.84
2022-09-17T08:11:06.576Z,100243.72
2022-09-17T08:13:34.762Z,100246.66
2022-09-17T08:16:03.370Z,100232.47
2022-09-17T08:18:31.636Z,100237.00
2022-09-17T08:20:59.802Z,100234.22
2022-09-17T08:23:27.839Z,100233.31
2022-09-17T08:25:56.610Z,100227.72
2022-09-17T08:28:28.082Z,100230.13
2022-09-17T08:30:56.155Z,100228.03
2022-09-17T08:33:23.901Z,100222.84
2022-09-17T08:35:53.175Z,100225.13
2022-09-17T08:38:22.122Z,100210.72
2022-09-17T08:41:01.851Z,100218.09
2022-09-17T08:43:32.716Z,100209.09
2022-09-17T08:46:01.177Z,100201.53
2022-09-17T08:48:38.567Z,100210.66
2022-09-17T08:51:16.036Z,100214.34
2022-09-17T08:53:58.854Z,100213.16
2022-09-17T08:56:27.667Z,100220.56
2022-09-17T08:59:19.617Z,100209.44
2022-09-17T09:01:59.806Z,100216.28
2022-09-17T09:04:59.874Z,100212.16
2022-09-17T09:07:30.310Z,100210.63
2022-09-17T09:10:11.336Z,100213.97
2022-09-17T09:12:40.948Z,100211.13
2022-09-17T09:15:32.251Z,100214.09
2022-09-17T09:18:06.344Z,100217.00
2022-09-17T09:20:44.278Z,100222.72
2022-09-17T09:23:19.066Z,100211.09
2022-09-17T09:25:55.281Z,100208.00
2022-09-17T09:28:36.109Z,100202.28
2022-09-17T09:31:18.415Z,100204.22
2022-09-17T09:33:48.153Z,100205.41
2022-09-17T09:36:21.601Z,100205.66
2022-09-17T09:38:57.515Z,100194.66
2022-09-17T09:41:30.633Z,100197.41
2022-09-17T09:44:12.443Z,100190.28
2022-09-17T09:47:01.521Z,100199.69
2022-09-17T09:49:40.703Z,100199.72
2022-09-17T09:52:20.819Z,100180.59
2022-09-17T09:55:12.058Z,100186.91
2022-09-17T09:57:45.309Z,100204.31
2022-09-17T10:00:37.374Z,100198.63
2022-09-17T10:03:19.484Z,100189.25
2022-09-17T10:05:55.782Z,100205.25
2022-09-17T10:08:24.338Z,100195.03
2022-09-17T10:10:57.253Z,100190.00
2022-09-17T10:13:25.726Z,100195.56
2022-09-17T10:15:53.590Z,100192.59
2022-09-17T10:18:24.975Z,100187.97
2022-09-17T10:20:58.114Z,100178.97
2022-09-17T10:23:29.900Z,100179.91
2022-09-17T10:25:59.770Z,100193.16
2022-09-17T10:28:46.685Z,100180.00
2022-09-17T10:31:15.288Z,100175.88
2022-09-17T10:33:57.082Z,100182.72
2022-09-17T10:36:39.550Z,100184.38
2022-09-17T10:39:29.930Z,100176.88
2022-09-17T10:41:59.284Z,100176.31
2022-09-17T10:44:29.164Z,100196.19
2022-09-17T10:47:04.188Z,100175.78
2022-09-17T10:49:43.151Z,100185.31
2022-09-17T10:52:23.264Z,100185.06
2022-09-17T10:55:11.867Z,100181.78
2022-09-17T10:57:54.006Z,100189.56
2022-09-17T11:00:23.711Z,100185.50
2022-09-17T11:03:28.543Z,100181.41
2022-09-17T11:06:20.814Z,100178.72
2022-09-17T11:08:59.998Z,100171.16
2022-09-17T11:11:40.380Z,100161.97
2022-09-17T11:14:21.506Z,100161.28
2022-09-17T11:17:01.912Z,100166.13
2022-09-17T11:19:45.415Z,100175.34
2022-09-17T11:22:23.193Z,100173.22
2022-09-17T11:25:01.076Z,100159.69
2022-09-17T11:27:43.994Z,100179.22
2022-09-17T11:30:17.854Z,100178.94
2022-09-17T11:33:08.733Z,100178.59
2022-09-17T11:35:40.366Z,100182.75
2022-09-17T11:38:16.700Z,100187.72
2022-09-17T11:40:48.891Z,100191.28
2022-09-17T11:43:25.736Z,100188.69
2022-09-17T11:46:00.050Z,100187.25
2022-09-17T11:48:35.064Z,100172.41
2022-09-17T11:51:11.784Z,100172.53
2022-09-17T11:53:49.099Z,100161.03
2022-09-17T11:56:22.488Z,100169.09
2022-09-17T11:58:56.215Z,100182.13
2022-09-17T12:01:31.817Z,100183.41
2022-09-17T12:04:02.291Z,100182.72
2022-09-17T12:06:39.597Z,100180.69
2022-09-17T12:09:17.551Z,100191.34
2022-09-17T12:11:51.998Z,100194.31
2022-09-17T12:14:25.815Z,100196.88
2022-09-17T12:16:59.245Z,100200.84
2022-09-17T12:19:33.043Z,100191.13
2022-09-17T12:22:05.485Z,100203.75
2022-09-17T12:24:34.867Z,100216.69
2022-09-17T12:27:21.911Z,100221.94
2022-09-17T12:30:11.927Z,100197.59
2022-09-17T12:32:59.447Z,100185.28
2022-09-17T12:38:53.902Z,100180.81
2022-09-17T12:41:27.920Z,100185.88
2022-09-17T12:44:05.888Z,100183.38
2022-09-17T12:46:56.663Z,100217.47
2022-09-17T12:49:35.942Z,100234.38
2022-09-17T12:52:08.757Z,100221.41
2022-09-17T12:54:51.562Z,100211.66
2022-09-17T12:57:36.138Z,100218.75
2022-09-17T13:00:08.547Z,100229.34
2022-09-17T13:02:42.005Z,100224.47
2022-09-17T13:05:35.828Z,100223.97
2022-09-17T13:08:25.220Z,100203.66
2022-09-17T13:11:19.402Z,100199.94
2022-09-17T13:13:53.962Z,100196.25
2022-09-17T13:16:26.886Z,100191.19
2022-09-17T13:19:17.494Z,100191.28
2022-09-17T13:21:54.513Z,100191.66
2022-09-17T13:24:25.544Z,100189.00
2022-09-17T13:26:55.839Z,100195.09
2022-09-17T13:32:48.885Z,100185.63
2022-09-17T13:35:50.991Z,100200.63
2022-09-17T13:38:23.804Z,100199.34
2022-09-17T13:40:52.300Z,100202.16
2022-09-17T13:43:26.875Z,100196.38
2022-09-17T13:46:12.950Z,100175.47
2022-09-17T13:48:58.081Z,100172.84
2022-09-17T13:51:48.736Z,100164.25
2022-09-17T13:54:18.703Z,100166.56
2022-09-17T13:56:49.347Z,100165.97
2022-09-17T13:59:20.465Z,100171.94
2022-09-17T14:02:20.558Z,100164.97
2022-09-17T14:04:53.346Z,100160.09
2022-09-17T14:07:35.116Z,100169.28
2022-09-17T14:10:18.511Z,100164.81
2022-09-17T14:12:55.955Z,100153.81
2022-09-17T14:15:55.556Z,100155.88
2022-09-17T14:18:38.716Z,100154.19
2022-09-17T14:21:15.406Z,100152.69
2022-09-17T14:23:45.796Z,100148.31
2022-09-17T14:26:27.418Z,100151.94
2022-09-17T14:29:02.671Z,100155.88
2022-09-17T14:31:35.759Z,100151.19
2022-09-17T14:34:05.791Z,100144.53
2022-09-17T14:36:39.127Z,100150.34
2022-09-17T14:39:13.442Z,100147.09
2022-09-17T14:41:43.602Z,100142.38
2022-09-17T14:44:16.254Z,100139.41
2022-09-17T14:46:50.348Z,100145.59
2022-09-17T14:49:22.686Z,100145.66
2022-09-17T14:51:52.311Z,100146.75
2022-09-17T14:54:24.865Z,100134.44
2022-09-17T14:57:01.047Z,100134.78
2022-09-17T14:59:38.839Z,100138.44
2022-09-17T15:02:24.495Z,100137.00
2022-09-17T15:04:52.187Z,100140.78
2022-09-17T15:07:22.768Z,100135.81
2022-09-17T15:09:52.669Z,100136.69
2022-09-17T15:12:26.277Z,100131.41
2022-09-17T15:14:56.393Z,100130.50
2022-09-17T15:17:24.111Z,100127.13
2022-09-17T15:19:55.420Z,100118.97
2022-09-17T15:22:28.495Z,100113.00
2022-09-17T15:24:59.508Z,100118.16
2022-09-17T15:27:30.750Z,100112.31
2022-09-17T15:30:02.883Z,100122.66
2022-09-17T15:32:30.780Z,100118.44
2022-09-17T15:35:18.378Z,100112.97
2022-09-17T15:38:11.627Z,100118.56
2022-09-17T15:40:40.873Z,100127.34
2022-09-17T15:43:17.857Z,100125.28
2022-09-17T15:45:45.958Z,100135.78
2022-09-17T15:48:25.475Z,100151.44
2022-09-17T15:50:54.547Z,100153.72
2022-09-17T15:53:26.030Z,100153.19
2022-09-17T15:56:03.718Z,100153.88
2022-09-17T15:58:34.792Z,100158.19
2022-09-17T16:01:52.879Z,100153.63
2022-09-17T16:04:28.046Z,100158.72
2022-09-17T16:07:01.560Z,100159.75
2022-09-17T16:09:46.681Z,100154.31
2022-09-17T16:12:17.225Z,100152.50
2022-09-17T16:14:52.323Z,100155.22
2022-09-17T16:17:39.361Z,100149.19
2022-09-17T16:20:16.062Z,100157.00
2022-09-17T16:22:45.576Z,100164.09
2022-09-17T16:25:15.437Z,100168.03
2022-09-17T16:27:51.745Z,100166.97
2022-09-17T16:30:22.159Z,100170.97
2022-09-17T16:32:50.262Z,100154.13
2022-09-17T16:35:19.573Z,100161.88
2022-09-17T16:37:50.251Z,100164.75
2022-09-17T16:40:20.372Z,100165.50
2022-09-17T16:42:48.635Z,100167.47
2022-09-17T16:45:17.154Z,100155.06
2022-09-17T16:47:45.234Z,100161.94
2022-09-17T16:50:14.390Z,100159.84
2022-09-17T16:52:42.553Z,100162.56
2022-09-17T16:55:10.935Z,100170.88
2022-09-17T16:57:39.906Z,100168.31
2022-09-17T17:00:12.517Z,100172.19
2022-09-17T17:02:40.246Z,100175.44
2022-09-17T17:05:08.642Z,100183.97
2022-09-17T17:07:36.819Z,100179.53
2022-09-17T17:10:05.020Z,100180.75
2022-09-17T17:12:32.671Z,100178.88
2022-09-17T17:15:02.383Z,100188.19
2022-09-17T17:17:31.100Z,100185.09
2022-09-17T17:19:58.662Z,100195.41
2022-09-17T17:22:26.818Z,100190.97
2022-09-17T17:24:55.450Z,100198.25
2022-09-17T17:27:23.046Z,100197.44
2022-09-17T17:29:50.798Z,100193.44
2022-09-17T17:32:20.086Z,100202.59
2022-09-17T17:34:48.411Z,100207.78
2022-09-17T17:37:16.053Z,100200.66
2022-09-17T17:39:43.828Z,100211.28
2022-09-17T17:42:11.433Z,100208.97
2022-09-17T17:44:39.413Z,100216.66
2022-09-17T17:47:07.511Z,100213.06
2022-09-17T17:49:36.374Z,100205.81
2022-09-17T17:52:04.084Z,100221.47
2022-09-17T17:54:31.821Z,100223.41
2022-09-17T17:56:59.612Z,100226.34
2022-09-17T17:59:27.378Z,100230.81
2022-09-17T18:01:55.141Z,100237.31
2022-09-17T18:04:22.845Z,100238.31
2022-09-17T18:06:51.755Z,100235.72
2022-09-17T18:09:19.465Z,100233.41
2022-09-17T18:11:47.218Z,100245.38
2022-09-17T18:14:15.069Z,100247.44
2022-09-17T18:16:42.608Z,100241.25
2022-09-17T18:19:11.987Z,100248.38
2022-09-17T18:21:39.602Z,100245.63
2022-09-17T18:24:08.644Z,100250.00
2022-09-17T18:26:36.381Z,100243.28
2022-09-17T18:29:07.802Z,100250.00
2022-09-17T18:31:37.696Z,100250.00
2022-09-17T18:34:07.711Z,100259.63
2022-09-17T18:36:36.795Z,100254.25
2022-09-17T18:39:33.244Z,100250.94
2022-09-17T18:41:55.065Z,100251.22
2022-09-17T18:44:22.668Z,100247.28
2022-09-17T18:46:51.392Z,100250.81
2022-09-17T18:49:19.218Z,100251.38
2022-09-17T18:51:46.834Z,100255.16
2022-09-17T18:54:14.603Z,100263.28
2022-09-17T18:56:42.392Z,100271.59
2022-09-17T18:59:11.622Z,100269.69
2022-09-17T19:01:39.232Z,100273.00
2022-09-17T19:04:07.370Z,100271.31
2022-09-17T19:06:35.032Z,100270.88
2022-09-17T19:09:04.904Z,100266.28
2022-09-17T19:11:32.769Z,100275.31
2022-09-17T19:14:00.854Z,100267.16
2022-09-17T19:16:29.826Z,100270.69
2022-09-17T19:18:57.445Z,100270.06
2022-09-17T19:21:25.149Z,100277.63
2022-09-17T19:23:53.664Z,100277.00
2022-09-17T19:26:22.820Z,100277.94
2022-09-17T19:28:52.882Z,100271.06
2022-09-17T19:31:20.740Z,100282.13
2022-09-17T19:33:50.409Z,100282.31
2022-09-17T19:36:19.863Z,100283.16
2022-09-17T19:38:48.035Z,100278.53
2022-09-17T19:41:17.695Z,100280.38
2022-09-17T19:43:46.097Z,100285.56
2022-09-17T19:46:15.604Z,100280.78
2022-09-17T19:48:44.773Z,100281.59
2022-09-17T19:51:14.051Z,100282.22
2022-09-17T19:53:41.913Z,100286.47
2022-09-17T19:56:12.767Z,100284.81
2022-09-17T19:58:40.619Z,100298.00
2022-09-17T20:01:08.431Z,100307.16
2022-09-17T20:03:36.070Z,100313.19
2022-09-17T20:06:05.627Z,100318.63
2022-09-17T20:08:39.302Z,100324.81
2022-09-17T20:11:12.677Z,100323.16
2022-09-17T20:13:40.469Z,100327.56
2022-09-17T20:16:11.150Z,100325.09
2022-09-17T20:18:38.917Z,100337.41
2022-09-17T20:21:10.405Z,100327.16
2022-09-17T20:23:39.914Z,100325.91
2022-09-17T20:26:07.915Z,100324.22
2022-09-17T20:28:36.132Z,100328.41
2022-09-17T20:31:05.554Z,100320.69
2022-09-17T20:33:34.027Z,100320.25
2022-09-17T20:36:03.584Z,100329.88
2022-09-17T20:41:21.356Z,100327.16
2022-09-17T20:43:51.495Z,100331.38
2022-09-17T20:46:23.676Z,100332.44
2022-09-17T20:48:53.925Z,100327.00
2022-09-17T20:51:23.478Z,100325.59
2022-09-17T20:53:52.073Z,100327.88
2022-09-17T20:56:22.868Z,100330.00
2022-09-17T20:58:57.980Z,100324.16
2022-09-17T21:01:32.213Z,100334.38
2022-09-17T21:04:01.679Z,100331.69
2022-09-17T21:06:31.324Z,100341.28
2022-09-17T21:09:00.572Z,100339.38
2022-09-17T21:11:31.155Z,100338.72
2022-09-17T21:14:00.100Z,100351.25
2022-09-17T21:16:28.363Z,100360.41
2022-09-17T21:18:57.917Z,100360.22
2022-09-17T21:21:26.279Z,100358.75
2022-09-17T21:23:53.898Z,100359.56
2022-09-17T21:26:23.120Z,100362.84
2022-09-17T21:28:53.476Z,100365.78
2022-09-17T21:31:22.792Z,100367.63
2022-09-17T21:33:55.148Z,100384.59
2022-09-17T21:36:24.381Z,100384.81
2022-09-17T21:38:52.942Z,100394.38
2022-09-17T21:41:21.566Z,100398.09
2022-09-17T21:43:49.498Z,100394.38
2022-09-17T21:46:23.437Z,100387.47
2022-09-17T21:48:53.137Z,100383.53
2022-09-17T21:51:22.545Z,100382.72
2022-09-17T21:53:51.613Z,100396.50
2022-09-17T21:56:22.006Z,100385.28
2022-09-17T21:58:52.892Z,100388.63
2022-09-17T22:01:23.910Z,100398.81
2022-09-17T22:03:51.826Z,100402.16
2022-09-17T22:06:22.386Z,100405.47
2022-09-17T22:08:51.305Z,100409.84
2022-09-17T22:11:22.340Z,100408.59
2022-09-17T22:13:54.585Z,100415.47
2022-09-17T22:16:24.957Z,100415.47
2022-09-17T22:18:53.154Z,100417.94
2022-09-17T22:21:22.536Z,100409.22
2022-09-17T22:23:50.614Z,100409.00
2022-09-17T22:26:20.751Z,100404.19
2022-09-17T22:28:48.622Z,100405.06
2022-09-17T22:31:16.503Z,100399.44
2022-09-17T22:33:47.770Z,100399.66
2022-09-17T22:36:16.604Z,100398.59
2022-09-17T22:38:48.180Z,100406.34
2022-09-17T22:41:18.215Z,100405.50
2022-09-17T22:43:46.791Z,100398.41
2022-09-17T22:46:16.823Z,100400.06
2022-09-17T22:48:46.290Z,100400.94
2022-09-17T22:51:14.794Z,100404.25
2022-09-17T22:53:43.643Z,100399.25
2022-09-17T22:56:13.826Z,100402.16
2022-09-17T22:58:41.893Z,100396.31
2022-09-17T23:01:13.892Z,100394.22
2022-09-17T23:03:42.575Z,100389.22
2022-09-17T23:06:14.932Z,100389.22
2022-09-17T23:08:42.517Z,100383.59
2022-09-17T23:11:17.300Z,100384.66
2022-09-17T23:13:45.097Z,100393.00
2022-09-17T23:16:12.720Z,100386.13
2022-09-17T23:18:40.386Z,100382.63
2022-09-17T23:21:13.142Z,100373.03
2022-09-17T23:23:43.343Z,100372.38
2022-09-17T23:26:14.667Z,100374.06
2022-09-17T23:28:43.048Z,100369.28
2022-09-17T23:31:12.064Z,100364.25
2022-09-17T23:33:40.286Z,100366.78
2022-09-17T23:36:10.088Z,100373.84
2022-09-17T23:38:37.625Z,100369.91
2022-09-17T23:41:12.414Z,100373.22
2022-09-17T23:43:40.237Z,100382.19
2022-09-17T23:46:08.126Z,100375.09
2022-09-17T23:48:35.702Z,100387.19
2022-09-17T23:51:03.926Z,100380.09
2022-09-17T23:53:32.018Z,100388.88
2022-09-17T23:56:00.399Z,100383.22
2022-09-17T23:58:31.520Z,100386.38
